createdAt,value
2023-05-08T00:00:27.534Z,10.45
2023-05-08T00:02:53.492Z,10.60
2023-05-08T00:05:19.584Z,10.27
2023-05-08T00:07:45.472Z,11.27
2023-05-08T00:10:11.994Z,10.32
2023-05-08T00:12:38.215Z,11.23
2023-05-08T00:15:04.963Z,10.73
2023-05-08T00:17:31.485Z,9.90
2023-05-08T00:19:57.290Z,10.85
2023-05-08T00:22:23.155Z,10.20
2023-05-08T00:24:49.132Z,10.18
2023-05-08T00:27:15.042Z,10.30
2023-05-08T00:29:41.201Z,14.50
2023-05-08T00:32:07.443Z,9.93
2023-05-08T00:34:33.478Z,10.38
2023-05-08T00:36:59.424Z,10.23
2023-05-08T00:39:25.328Z,11.43
2023-05-08T00:41:51.310Z,11.82
2023-05-08T00:44:17.274Z,9.98
2023-05-08T00:46:44.218Z,10.68
2023-05-08T00:49:12.489Z,10.68
2023-05-08T00:51:44.051Z,10.73
2023-05-08T00:54:10.722Z,11.52
2023-05-08T00:56:37.826Z,16.02
2023-05-08T00:59:09.217Z,13.70
2023-05-08T01:01:40.143Z,11.52
2023-05-08T01:04:06.719Z,12.45
2023-05-08T01:06:38.982Z,11.93
2023-05-08T01:09:04.870Z,13.18
2023-05-08T01:11:37.725Z,10.85
2023-05-08T01:14:35.446Z,11.95
2023-05-08T01:17:07.269Z,11.93
2023-05-08T01:20:01.700Z,14.50
2023-05-08T01:23:02.690Z,11.85
2023-05-08T01:26:06.674Z,13.07
2023-05-08T01:28:51.421Z,13.40
2023-05-08T01:31:35.712Z,13.13
2023-05-08T01:34:23.662Z,13.57
2023-05-08T01:37:12.259Z,13.98
2023-05-08T01:39:50.609Z,13.18
2023-05-08T01:42:32.837Z,14.35
2023-05-08T01:45:15.119Z,14.60
2023-05-08T01:47:43.476Z,13.70
2023-05-08T01:50:18.724Z,13.35
2023-05-08T01:53:07.922Z,13.23
2023-05-08T01:55:36.786Z,13.15
2023-05-08T01:58:07.056Z,13.00
2023-05-08T02:00:33.009Z,13.60
2023-05-08T02:03:00.093Z,14.00
2023-05-08T02:05:27.322Z,13.18
2023-05-08T02:07:54.653Z,12.95
2023-05-08T02:10:24.514Z,13.00
2023-05-08T02:12:51.600Z,13.45
2023-05-08T02:15:18.305Z,13.35
2023-05-08T02:17:47.962Z,14.23
2023-05-08T02:20:15.411Z,14.63
2023-05-08T02:22:44.036Z,14.30
2023-05-08T02:25:13.867Z,14.48
2023-05-08T02:27:44.835Z,13.85
2023-05-08T02:30:14.509Z,15.82
2023-05-08T02:32:43.152Z,15.57
2023-05-08T02:35:12.972Z,15.05
2023-05-08T02:37:41.932Z,15.57
2023-05-08T02:40:10.684Z,16.02
2023-05-08T02:42:37.099Z,15.05
2023-05-08T02:45:04.107Z,14.48
2023-05-08T02:47:46.784Z,16.60
2023-05-08T02:50:19.815Z,14.70
2023-05-08T02:52:50.379Z,15.02
2023-05-08T02:55:28.080Z,15.55
2023-05-08T02:58:07.291Z,14.15
2023-05-08T03:00:44.350Z,16.08
2023-05-08T03:03:23.729Z,14.35
2023-05-08T03:05:59.042Z,15.40
2023-05-08T03:08:33.912Z,15.13
2023-05-08T03:11:04.930Z,14.07
2023-05-08T03:13:33.795Z,13.90
2023-05-08T03:16:01.568Z,14.52
2023-05-08T03:18:42.234Z,14.15
2023-05-08T03:21:10.495Z,13.85
2023-05-08T03:23:38.515Z,15.95
2023-05-08T03:26:05.876Z,14.18
2023-05-08T03:28:32.313Z,15.77
2023-05-08T03:31:00.050Z,14.77
2023-05-08T03:33:28.223Z,16.27
2023-05-08T03:35:55.576Z,15.40
2023-05-08T03:38:23.675Z,15.95
2023-05-08T03:40:49.721Z,16.27
2023-05-08T03:43:16.846Z,16.05
2023-05-08T03:45:44.146Z,18.27
2023-05-08T03:48:10.430Z,15.32
2023-05-08T03:50:37.205Z,15.00
2023-05-08T03:53:03.257Z,14.95
2023-05-08T03:55:32.547Z,15.27
2023-05-08T03:58:17.826Z,15.13
2023-05-08T04:01:17.881Z,14.93
2023-05-08T04:04:02.227Z,16.02
2023-05-08T04:06:45.853Z,14.95
2023-05-08T04:09:33.784Z,15.80
2023-05-08T04:12:11.702Z,14.52
2023-05-08T04:14:44.701Z,14.85
2023-05-08T04:17:14.874Z,15.55
2023-05-08T04:19:46.025Z,15.43
2023-05-08T04:22:12.472Z,14.63
2023-05-08T04:24:45.070Z,17.35
2023-05-08T04:27:12.437Z,15.65
2023-05-08T04:29:38.822Z,15.77
2023-05-08T04:32:05.775Z,14.75
2023-05-08T04:34:31.830Z,15.75
2023-05-08T04:36:57.811Z,16.25
2023-05-08T04:39:23.733Z,16.23
2023-05-08T04:41:51.759Z,15.00
2023-05-08T04:44:17.820Z,15.05
2023-05-08T04:46:43.747Z,15.85
2023-05-08T04:49:09.619Z,14.07
2023-05-08T04:51:35.595Z,14.60
2023-05-08T04:54:01.421Z,13.75
2023-05-08T04:56:27.343Z,16.77
2023-05-08T04:58:53.359Z,15.80
2023-05-08T05:01:19.195Z,16.58
2023-05-08T05:03:45.068Z,17.48
2023-05-08T05:06:11.420Z,15.82
2023-05-08T05:08:37.295Z,15.40
2023-05-08T05:11:03.114Z,16.65
2023-05-08T05:13:29.000Z,15.90
2023-05-08T05:15:56.200Z,16.35
2023-05-08T05:18:23.404Z,16.50
2023-05-08T05:20:49.231Z,16.00
2023-05-08T05:23:15.047Z,16.35
2023-05-08T05:25:41.039Z,16.17
2023-05-08T05:28:06.874Z,16.30
2023-05-08T05:30:32.980Z,18.73
2023-05-08T05:32:59.197Z,15.07
2023-05-08T05:35:25.749Z,17.35
2023-05-08T05:37:51.725Z,15.82
2023-05-08T05:40:17.500Z,14.88
2023-05-08T05:42:49.153Z,15.32
2023-05-08T05:45:15.294Z,13.27
2023-05-08T05:47:46.149Z,13.88
2023-05-08T05:50:12.321Z,12.07
2023-05-08T05:52:38.249Z,10.88
2023-05-08T05:55:04.591Z,11.40
2023-05-08T05:57:30.354Z,12.23
2023-05-08T05:59:56.140Z,12.60
2023-05-08T06:02:22.064Z,11.77
2023-05-08T06:04:49.355Z,11.75
2023-05-08T06:07:15.411Z,9.90
2023-05-08T06:09:41.204Z,9.05
2023-05-08T06:12:07.513Z,8.70
2023-05-08T06:14:33.605Z,8.80
2023-05-08T06:16:59.471Z,8.50
2023-05-08T06:19:25.522Z,10.50
2023-05-08T06:21:51.502Z,11.52
2023-05-08T06:24:17.432Z,11.25
2023-05-08T06:26:43.210Z,13.05
2023-05-08T06:29:08.979Z,12.23
2023-05-08T06:31:34.796Z,12.35
2023-05-08T06:34:00.654Z,13.27
2023-05-08T06:36:26.542Z,13.45
2023-05-08T06:38:52.375Z,12.88
2023-05-08T06:41:18.188Z,14.75
2023-05-08T06:43:46.614Z,12.77
2023-05-08T06:46:12.619Z,14.57
2023-05-08T06:48:38.450Z,13.88
2023-05-08T06:51:04.350Z,12.07
2023-05-08T06:53:30.481Z,11.35
2023-05-08T06:55:59.102Z,12.68
2023-05-08T06:58:25.148Z,11.15
2023-05-08T07:00:50.978Z,10.68
2023-05-08T07:03:16.766Z,10.23
2023-05-08T07:05:42.563Z,10.15
2023-05-08T07:08:08.377Z,9.88
2023-05-08T07:10:34.655Z,9.52
2023-05-08T07:13:00.953Z,9.38
2023-05-08T07:15:27.267Z,9.10
2023-05-08T07:17:53.253Z,9.55
2023-05-08T07:20:19.639Z,8.55
2023-05-08T07:22:45.898Z,7.57
2023-05-08T07:25:12.209Z,7.95
2023-05-08T07:27:38.186Z,8.05
2023-05-08T07:30:04.761Z,7.03
2023-05-08T07:32:31.024Z,7.10
2023-05-08T07:34:56.869Z,8.00
2023-05-08T07:37:22.819Z,7.07
2023-05-08T07:39:48.926Z,7.35
2023-05-08T07:42:14.762Z,7.85
2023-05-08T07:44:47.204Z,7.00
2023-05-08T07:47:19.294Z,7.15
2023-05-08T07:49:45.124Z,7.47
2023-05-08T07:52:10.905Z,7.95
2023-05-08T07:54:36.723Z,7.28
2023-05-08T07:57:02.569Z,8.48
2023-05-08T07:59:28.450Z,8.38
2023-05-08T08:01:54.608Z,9.73
2023-05-08T08:04:20.440Z,10.82
2023-05-08T08:06:46.393Z,9.90
2023-05-08T08:09:12.149Z,8.95
2023-05-08T08:11:37.940Z,10.23
2023-05-08T08:14:03.709Z,9.32
2023-05-08T08:16:29.644Z,8.88
2023-05-08T08:18:55.678Z,8.48
2023-05-08T08:21:21.514Z,7.97
2023-05-08T08:23:47.356Z,7.47
2023-05-08T08:26:13.179Z,6.55
2023-05-08T08:28:39.121Z,6.68
2023-05-08T08:31:05.013Z,7.20
2023-05-08T08:33:30.898Z,6.90
2023-05-08T08:35:56.715Z,7.28
2023-05-08T08:38:23.504Z,6.80
2023-05-08T08:40:49.553Z,7.28
2023-05-08T08:43:15.445Z,7.45
2023-05-08T08:45:41.359Z,8.43
2023-05-08T08:48:13.689Z,8.80
2023-05-08T08:50:43.470Z,9.50
2023-05-08T08:53:23.785Z,9.63
2023-05-08T08:55:53.069Z,9.88
2023-05-08T08:58:30.659Z,9.43
2023-05-08T09:00:58.924Z,9.18
2023-05-08T09:03:24.999Z,10.65
2023-05-08T09:05:51.158Z,8.90
2023-05-08T09:08:18.016Z,9.98
2023-05-08T09:10:43.833Z,13.90
2023-05-08T09:13:09.941Z,8.65
2023-05-08T09:15:35.757Z,9.82
2023-05-08T09:18:02.007Z,10.98
2023-05-08T09:20:28.360Z,10.52
2023-05-08T09:22:55.128Z,9.38
2023-05-08T09:25:21.155Z,10.77
2023-05-08T09:27:47.056Z,9.68
2023-05-08T09:30:16.097Z,9.65
2023-05-08T09:32:44.249Z,10.23
2023-05-08T09:35:11.530Z,10.70
2023-05-08T09:37:39.819Z,11.73
2023-05-08T09:40:20.135Z,9.23
2023-05-08T09:42:48.357Z,9.40
2023-05-08T09:45:28.930Z,9.55
2023-05-08T09:47:55.211Z,9.07
2023-05-08T09:50:21.079Z,9.38
2023-05-08T09:52:48.682Z,9.70
2023-05-08T09:55:14.760Z,9.52
2023-05-08T09:57:53.275Z,8.93
2023-05-08T10:00:19.878Z,9.23
2023-05-08T10:03:06.496Z,7.78
2023-05-08T10:05:35.089Z,6.85
2023-05-08T10:08:25.081Z,11.40
2023-05-08T10:10:51.206Z,6.20
2023-05-08T10:13:17.027Z,5.57
2023-05-08T10:15:44.390Z,8.13
2023-05-08T10:18:13.511Z,5.57
2023-05-08T10:20:41.886Z,5.50
2023-05-08T10:23:13.728Z,6.38
2023-05-08T10:25:47.454Z,6.07
2023-05-08T10:28:23.539Z,5.70
2023-05-08T10:30:49.943Z,6.88
2023-05-08T10:33:22.095Z,5.25
2023-05-08T10:35:48.409Z,5.65
2023-05-08T10:38:15.807Z,10.82
2023-05-08T10:40:42.127Z,6.05
2023-05-08T10:43:09.104Z,6.60
2023-05-08T10:45:36.465Z,6.30
2023-05-08T10:48:19.878Z,9.25
2023-05-08T10:51:08.348Z,8.35
2023-05-08T10:53:51.952Z,8.77
2023-05-08T10:56:17.864Z,8.57
2023-05-08T10:58:43.715Z,11.95
2023-05-08T11:01:10.837Z,9.45
2023-05-08T11:03:42.759Z,10.60
2023-05-08T11:06:09.415Z,10.57
2023-05-08T11:08:45.984Z,9.68
2023-05-08T11:11:26.930Z,9.88
2023-05-08T11:14:08.873Z,9.65
2023-05-08T11:16:52.560Z,9.77
2023-05-08T11:19:22.928Z,12.75
2023-05-08T11:22:14.891Z,12.38
2023-05-08T11:24:53.688Z,9.20
2023-05-08T11:27:35.353Z,10.15
2023-05-08T11:30:31.919Z,9.70
2023-05-08T11:33:03.940Z,9.57
2023-05-08T11:35:49.954Z,10.32
2023-05-08T11:38:23.508Z,10.65
2023-05-08T11:40:59.965Z,10.95
2023-05-08T11:43:31.939Z,10.35
2023-05-08T11:46:15.006Z,9.63
2023-05-08T11:48:42.042Z,9.63
2023-05-08T11:51:08.742Z,11.38
2023-05-08T11:53:35.727Z,9.00
2023-05-08T11:56:02.820Z,8.75
2023-05-08T11:58:29.006Z,8.73
2023-05-08T12:00:55.271Z,9.27
2023-05-08T12:03:24.594Z,9.52
2023-05-08T12:05:50.812Z,9.75
2023-05-08T12:08:17.656Z,9.60
2023-05-08T12:10:46.868Z,9.73
2023-05-08T12:13:18.241Z,8.07
2023-05-08T12:15:55.754Z,8.32
2023-05-08T12:18:23.476Z,9.02
2023-05-08T12:21:07.407Z,9.35
2023-05-08T12:23:33.189Z,8.13
2023-05-08T12:26:00.317Z,9.23
2023-05-08T12:28:26.569Z,7.20
2023-05-08T12:30:53.290Z,7.70
2023-05-08T12:33:20.103Z,7.75
2023-05-08T12:35:46.124Z,7.70
2023-05-08T12:38:12.343Z,7.35
2023-05-08T12:40:43.270Z,9.93
2023-05-08T12:43:10.115Z,8.45
2023-05-08T12:45:41.363Z,7.13
2023-05-08T12:48:09.958Z,7.78
2023-05-08T12:50:38.476Z,7.75
2023-05-08T12:53:06.519Z,7.32
2023-05-08T12:55:34.549Z,9.57
2023-05-08T12:58:04.855Z,8.07
2023-05-08T13:00:51.086Z,7.60
2023-05-08T13:03:25.888Z,7.35
2023-05-08T13:05:53.049Z,8.30
2023-05-08T13:08:19.004Z,7.88
2023-05-08T13:10:54.767Z,8.30
2023-05-08T13:13:22.843Z,8.07
2023-05-08T13:15:49.931Z,7.40
2023-05-08T13:18:17.070Z,8.30
2023-05-08T13:20:43.072Z,8.55
2023-05-08T13:23:09.672Z,10.82
2023-05-08T13:25:40.021Z,7.85
2023-05-08T13:28:07.043Z,7.93
2023-05-08T13:30:35.494Z,7.55
2023-05-08T13:33:02.246Z,8.20
2023-05-08T13:35:28.261Z,8.50
2023-05-08T13:37:55.113Z,8.93
2023-05-08T13:40:20.995Z,7.75
2023-05-08T13:42:46.854Z,8.82
2023-05-08T13:45:15.902Z,8.73
2023-05-08T13:47:42.411Z,8.77
2023-05-08T13:50:09.785Z,8.65
2023-05-08T13:52:37.102Z,8.23
2023-05-08T13:55:05.782Z,9.40
2023-05-08T13:57:31.834Z,8.68
2023-05-08T13:59:57.646Z,8.90
2023-05-08T14:02:23.736Z,9.57
2023-05-08T14:04:49.721Z,9.30
2023-05-08T14:07:17.634Z,10.00
2023-05-08T14:09:44.705Z,9.13
2023-05-08T14:12:11.649Z,9.55
2023-05-08T14:14:37.470Z,12.48
2023-05-08T14:17:04.306Z,11.68
2023-05-08T14:19:30.593Z,9.18
2023-05-08T14:21:56.536Z,9.75
2023-05-08T14:24:22.406Z,7.78
2023-05-08T14:26:48.318Z,8.98
2023-05-08T14:29:14.344Z,12.85
2023-05-08T14:31:40.414Z,9.20
2023-05-08T14:34:06.243Z,9.98
2023-05-08T14:36:32.259Z,8.43
2023-05-08T14:38:58.132Z,9.52
2023-05-08T14:41:28.069Z,9.52
2023-05-08T14:43:54.149Z,11.18
2023-05-08T14:46:20.102Z,9.07
2023-05-08T14:48:46.068Z,13.88
2023-05-08T14:51:13.286Z,9.05
2023-05-08T14:53:40.302Z,9.55
2023-05-08T14:56:06.994Z,11.40
2023-05-08T14:58:33.008Z,9.82
2023-05-08T15:00:58.895Z,10.05
2023-05-08T15:03:25.172Z,9.57
2023-05-08T15:05:51.570Z,9.55
2023-05-08T15:08:17.611Z,11.98
2023-05-08T15:10:43.514Z,10.27
2023-05-08T15:13:09.531Z,11.85
2023-05-08T15:15:35.398Z,9.35
2023-05-08T15:18:01.325Z,10.75
2023-05-08T15:20:29.806Z,9.75
2023-05-08T15:22:55.631Z,9.55
2023-05-08T15:25:21.386Z,11.48
2023-05-08T15:27:51.902Z,11.18
2023-05-08T15:30:18.948Z,9.27
2023-05-08T15:32:45.197Z,10.68
2023-05-08T15:35:11.139Z,9.60
2023-05-08T15:37:37.621Z,10.48
2023-05-08T15:40:03.887Z,12.20
2023-05-08T15:42:29.893Z,8.75
2023-05-08T15:44:58.800Z,7.55
2023-05-08T15:47:26.579Z,8.02
2023-05-08T15:49:53.345Z,9.00
2023-05-08T15:52:19.417Z,10.23
2023-05-08T15:54:46.318Z,6.93
2023-05-08T15:57:12.580Z,7.05
2023-05-08T15:59:38.443Z,5.38
2023-05-08T16:02:04.727Z,4.72
2023-05-08T16:04:30.704Z,4.20
2023-05-08T16:06:58.422Z,4.07
2023-05-08T16:09:24.690Z,4.63
2023-05-08T16:11:50.620Z,5.25
2023-05-08T16:14:16.406Z,4.45
2023-05-08T16:16:42.673Z,3.85
2023-05-08T16:19:08.559Z,3.25
2023-05-08T16:21:34.489Z,2.03
2023-05-08T16:24:01.261Z,2.10
2023-05-08T16:26:27.140Z,2.78
2023-05-08T16:28:52.970Z,2.58
2023-05-08T16:31:18.822Z,2.90
2023-05-08T16:33:44.622Z,6.47
2023-05-08T16:36:10.536Z,10.25
2023-05-08T16:38:36.398Z,3.78
2023-05-08T16:41:06.630Z,2.85
2023-05-08T16:43:32.588Z,4.55
2023-05-08T16:45:59.421Z,3.08
2023-05-08T16:48:26.083Z,4.18
2023-05-08T16:50:52.307Z,3.83
2023-05-08T16:53:18.215Z,2.65
2023-05-08T16:55:44.117Z,6.22
2023-05-08T16:58:10.477Z,3.72
2023-05-08T17:00:36.381Z,3.30
2023-05-08T17:03:02.326Z,4.95
2023-05-08T17:05:28.342Z,3.63
2023-05-08T17:07:54.633Z,6.50
2023-05-08T17:10:20.868Z,3.58
2023-05-08T17:12:46.846Z,4.00
2023-05-08T17:15:12.872Z,3.33
2023-05-08T17:17:38.940Z,4.85
2023-05-08T17:20:05.551Z,5.00
2023-05-08T17:22:31.491Z,3.47
2023-05-08T17:24:57.326Z,9.73
2023-05-08T17:27:23.254Z,6.05
2023-05-08T17:29:49.209Z,5.72
2023-05-08T17:32:15.160Z,4.57
2023-05-08T17:34:41.053Z,2.50
2023-05-08T17:37:06.980Z,6.65
2023-05-08T17:39:32.866Z,4.45
2023-05-08T17:41:58.662Z,3.15
2023-05-08T17:44:24.568Z,2.97
2023-05-08T17:46:50.530Z,3.15
2023-05-08T17:49:19.075Z,2.30
2023-05-08T17:51:45.468Z,3.05
2023-05-08T17:54:11.376Z,2.53
2023-05-08T17:56:37.453Z,3.08
2023-05-08T17:59:03.427Z,3.05
2023-05-08T18:01:29.557Z,6.03
2023-05-08T18:03:55.873Z,5.13
2023-05-08T18:06:21.869Z,4.93
2023-05-08T18:08:48.157Z,3.53
2023-05-08T18:11:25.138Z,3.70
2023-05-08T18:13:54.432Z,4.47
2023-05-08T18:16:21.548Z,6.05
2023-05-08T18:18:48.850Z,6.18
2023-05-08T18:21:15.189Z,5.53
2023-05-08T18:23:41.303Z,7.85
2023-05-08T18:26:07.187Z,5.88
2023-05-08T18:28:35.512Z,4.55
2023-05-08T18:31:02.363Z,4.75
2023-05-08T18:33:28.396Z,5.65
2023-05-08T18:35:55.110Z,5.47
2023-05-08T18:38:21.702Z,4.70
2023-05-08T18:40:47.750Z,5.10
2023-05-08T18:43:13.858Z,3.95
2023-05-08T18:45:40.530Z,5.50
2023-05-08T18:48:09.306Z,4.05
2023-05-08T18:50:35.615Z,4.93
2023-05-08T18:53:01.779Z,5.10
2023-05-08T18:55:27.713Z,6.03
2023-05-08T18:57:54.742Z,4.80
2023-05-08T19:00:20.886Z,4.47
2023-05-08T19:02:47.078Z,5.55
2023-05-08T19:05:13.227Z,8.18
2023-05-08T19:07:39.717Z,7.20
2023-05-08T19:10:06.689Z,10.43
2023-05-08T19:12:32.999Z,6.32
2023-05-08T19:14:58.928Z,9.63
2023-05-08T19:17:25.137Z,5.13
2023-05-08T19:19:53.714Z,5.10
2023-05-08T19:22:19.704Z,5.43
2023-05-08T19:24:45.745Z,6.43
2023-05-08T19:27:11.763Z,7.10
2023-05-08T19:29:37.654Z,5.15
2023-05-08T19:32:04.374Z,7.90
2023-05-08T19:34:31.505Z,6.90
2023-05-08T19:36:57.656Z,5.45
2023-05-08T19:39:23.471Z,6.78
2023-05-08T19:41:49.355Z,6.45
2023-05-08T19:44:15.193Z,6.75
2023-05-08T19:46:41.883Z,6.20
2023-05-08T19:49:07.899Z,7.72
2023-05-08T19:51:33.883Z,7.53
2023-05-08T19:53:59.838Z,6.70
2023-05-08T19:56:26.009Z,6.43
2023-05-08T19:58:51.937Z,6.03
2023-05-08T20:01:18.186Z,6.93
2023-05-08T20:03:44.254Z,6.15
2023-05-08T20:06:10.487Z,10.32
2023-05-08T20:08:36.434Z,6.55
2023-05-08T20:11:03.344Z,7.32
2023-05-08T20:13:31.865Z,6.53
2023-05-08T20:15:57.988Z,5.88
2023-05-08T20:18:24.713Z,6.32
2023-05-08T20:20:50.605Z,6.20
2023-05-08T20:23:16.483Z,5.93
2023-05-08T20:25:45.592Z,7.28
2023-05-08T20:28:11.526Z,5.72
2023-05-08T20:30:37.440Z,7.20
2023-05-08T20:33:04.152Z,8.27
2023-05-08T20:35:33.163Z,8.43
2023-05-08T20:37:59.031Z,6.00
2023-05-08T20:40:25.026Z,6.45
2023-05-08T20:42:50.827Z,6.53
2023-05-08T20:45:16.690Z,6.68
2023-05-08T20:47:42.803Z,6.53
2023-05-08T20:50:08.859Z,6.43
2023-05-08T20:52:36.030Z,9.18
2023-05-08T20:55:04.016Z,8.32
2023-05-08T20:57:30.008Z,7.07
2023-05-08T20:59:55.857Z,6.65
2023-05-08T21:02:21.650Z,7.35
2023-05-08T21:04:47.761Z,9.20
2023-05-08T21:07:13.596Z,7.85
2023-05-08T21:09:39.605Z,9.27
2023-05-08T21:12:05.842Z,9.80
2023-05-08T21:14:31.652Z,7.38
2023-05-08T21:16:57.669Z,7.47
2023-05-08T21:19:23.551Z,9.07
2023-05-08T21:21:49.409Z,8.43
2023-05-08T21:24:15.287Z,10.48
2023-05-08T21:26:41.106Z,8.52
2023-05-08T21:29:07.158Z,7.55
2023-05-08T21:31:34.852Z,8.93
2023-05-08T21:34:01.871Z,9.43
2023-05-08T21:36:28.569Z,9.90
2023-05-08T21:38:54.852Z,11.10
2023-05-08T21:41:21.406Z,9.50
2023-05-08T21:43:48.150Z,11.93
2023-05-08T21:46:14.055Z,10.10
2023-05-08T21:48:40.008Z,9.10
2023-05-08T21:51:06.174Z,11.85
2023-05-08T21:53:32.345Z,10.73
2023-05-08T21:55:58.862Z,12.05
2023-05-08T21:58:24.764Z,13.48
2023-05-08T22:00:50.557Z,9.82
2023-05-08T22:03:16.901Z,10.75
2023-05-08T22:05:46.490Z,10.63
2023-05-08T22:08:12.310Z,10.35
2023-05-08T22:10:38.196Z,10.27
2023-05-08T22:13:05.758Z,10.07
2023-05-08T22:15:31.627Z,9.43
2023-05-08T22:17:58.578Z,20.92
2023-05-08T22:20:24.909Z,9.15
2023-05-08T22:22:50.738Z,9.10
2023-05-08T22:25:16.619Z,11.88
2023-05-08T22:27:42.481Z,11.00
2023-05-08T22:30:08.462Z,8.23
2023-05-08T22:32:34.615Z,7.85
2023-05-08T22:35:00.385Z,8.13
2023-05-08T22:37:26.198Z,7.60
2023-05-08T22:39:52.105Z,9.27
2023-05-08T22:42:18.056Z,7.65
2023-05-08T22:44:44.733Z,9.07
2023-05-08T22:47:11.380Z,8.50
2023-05-08T22:49:41.378Z,8.75
2023-05-08T22:52:08.368Z,8.68
2023-05-08T22:54:34.526Z,11.93
2023-05-08T22:57:00.917Z,11.05
2023-05-08T22:59:26.660Z,9.38
2023-05-08T23:01:52.493Z,9.70
2023-05-08T23:04:18.579Z,11.82
2023-05-08T23:06:44.403Z,11.43
2023-05-08T23:09:10.264Z,9.98
2023-05-08T23:11:36.171Z,8.98
2023-05-08T23:14:02.001Z,9.82
2023-05-08T23:16:29.223Z,12.50
2023-05-08T23:18:55.101Z,10.13
2023-05-08T23:21:20.994Z,10.52
2023-05-08T23:23:48.000Z,12.40
2023-05-08T23:26:13.901Z,10.23
2023-05-08T23:28:39.779Z,11.95
2023-05-08T23:31:05.660Z,11.63
2023-05-08T23:33:31.452Z,11.30
2023-05-08T23:35:58.488Z,11.70
2023-05-08T23:38:24.664Z,12.00
2023-05-08T23:40:50.687Z,11.82
2023-05-08T23:43:17.128Z,10.98
2023-05-08T23:45:43.528Z,11.45
2023-05-08T23:48:09.622Z,11.93
2023-05-08T23:50:35.484Z,14.70
2023-05-08T23:53:01.495Z,13.95
2023-05-08T23:55:27.301Z,13.15
2023-05-08T23:57:53.098Z,14.15
